createdAt,value
2022-10-04T00:01:20.580Z,49.93
2022-10-04T00:03:49.925Z,49.91
2022-10-04T00:06:21.776Z,49.95
2022-10-04T00:08:55.186Z,49.99
2022-10-04T00:11:26.628Z,49.97
2022-10-04T00:14:12.500Z,50.33
2022-10-04T00:16:42.048Z,49.88
2022-10-04T00:19:14.882Z,50.29
2022-10-04T00:21:57.003Z,50.33
2022-10-04T00:24:31.820Z,49.91
2022-10-04T00:27:20.645Z,50.06
2022-10-04T00:30:20.759Z,50.18
2022-10-04T00:33:08.152Z,50.26
2022-10-04T00:35:35.285Z,49.83
2022-10-04T00:38:14.921Z,50.31
2022-10-04T00:41:02.039Z,49.85
2022-10-04T00:43:38.986Z,49.86
2022-10-04T00:46:17.217Z,50.26
2022-10-04T00:49:01.258Z,50.28
2022-10-04T00:51:28.611Z,49.80
2022-10-04T00:54:15.087Z,50.41
2022-10-04T00:56:51.078Z,50.19
2022-10-04T00:59:31.995Z,49.97
2022-10-04T01:02:03.269Z,50.07
2022-10-04T01:04:38.254Z,50.21
2022-10-04T01:07:06.174Z,49.92
2022-10-04T01:09:34.739Z,49.80
2022-10-04T01:12:08.368Z,50.21
2022-10-04T01:14:41.391Z,49.93
2022-10-04T01:17:08.814Z,49.85
2022-10-04T01:19:35.713Z,49.76
2022-10-04T01:22:05.236Z,49.97
2022-10-04T01:24:39.601Z,49.66
2022-10-04T01:27:36.191Z,50.05
2022-10-04T01:30:09.174Z,49.96
2022-10-04T01:32:37.595Z,49.71
2022-10-04T01:35:05.148Z,49.81
2022-10-04T01:37:32.619Z,49.74
2022-10-04T01:39:59.508Z,50.15
2022-10-04T01:42:31.122Z,50.09
2022-10-04T01:45:28.910Z,50.08
2022-10-04T01:47:58.625Z,49.98
2022-10-04T01:50:32.431Z,50.23
2022-10-04T01:53:27.882Z,50.11
2022-10-04T01:56:05.688Z,49.98
2022-10-04T01:58:45.565Z,50.12
2022-10-04T02:01:43.632Z,50.20
2022-10-04T02:04:19.792Z,50.55
2022-10-04T02:06:53.112Z,50.45
2022-10-04T02:09:23.409Z,50.21
2022-10-04T02:11:54.197Z,50.52
2022-10-04T02:14:23.952Z,50.54
2022-10-04T02:16:54.386Z,50.15
2022-10-04T02:19:27.592Z,50.48
2022-10-04T02:21:56.040Z,50.79
2022-10-04T02:24:22.732Z,50.85
2022-10-04T02:26:51.647Z,50.84
2022-10-04T02:29:20.115Z,50.82
2022-10-04T02:32:08.415Z,50.99
2022-10-04T02:34:35.899Z,50.61
2022-10-04T02:37:04.241Z,50.83
2022-10-04T02:39:39.135Z,51.01
2022-10-04T02:42:18.795Z,51.16
2022-10-04T02:44:59.055Z,51.18
2022-10-04T02:47:29.753Z,51.09
2022-10-04T02:50:01.051Z,50.96
2022-10-04T02:52:31.839Z,51.21
2022-10-04T02:55:04.978Z,50.99
2022-10-04T02:57:33.427Z,51.33
2022-10-04T03:00:17.876Z,51.53
2022-10-04T03:03:24.243Z,51.32
2022-10-04T03:06:11.736Z,51.65
2022-10-04T03:08:49.059Z,51.60
2022-10-04T03:11:16.768Z,51.37
2022-10-04T03:13:47.626Z,51.26
2022-10-04T03:16:14.784Z,51.65
2022-10-04T03:18:42.364Z,51.44
2022-10-04T03:21:12.375Z,51.47
2022-10-04T03:23:39.830Z,51.33
2022-10-04T03:26:26.464Z,51.69
2022-10-04T03:28:53.379Z,51.50
2022-10-04T03:31:20.259Z,51.83
2022-10-04T03:33:47.512Z,51.47
2022-10-04T03:36:19.611Z,51.54
2022-10-04T03:38:47.310Z,51.86
2022-10-04T03:41:14.792Z,51.68
2022-10-04T03:43:45.855Z,51.54
2022-10-04T03:46:14.221Z,51.50
2022-10-04T03:48:50.167Z,51.45
2022-10-04T03:51:20.088Z,51.38
2022-10-04T03:53:50.319Z,51.47
2022-10-04T03:56:33.693Z,51.47
2022-10-04T03:59:03.470Z,51.63
2022-10-04T04:01:40.558Z,51.44
2022-10-04T04:04:17.407Z,51.28
2022-10-04T04:06:50.473Z,51.23
2022-10-04T04:09:46.482Z,51.73
2022-10-04T04:12:35.020Z,51.39
2022-10-04T04:15:02.395Z,51.46
2022-10-04T04:17:30.279Z,51.38
2022-10-04T04:20:07.219Z,51.61
2022-10-04T04:22:46.572Z,51.55
2022-10-04T04:25:16.577Z,51.31
2022-10-04T04:27:45.064Z,51.58
2022-10-04T04:30:16.989Z,51.15
2022-10-04T04:32:48.469Z,51.40
2022-10-04T04:35:30.652Z,51.24
2022-10-04T04:38:06.451Z,51.49
2022-10-04T04:40:34.162Z,51.05
2022-10-04T04:43:02.418Z,51.42
2022-10-04T04:45:31.259Z,51.09
2022-10-04T04:47:59.204Z,51.48
2022-10-04T04:50:31.054Z,51.04
2022-10-04T04:53:14.771Z,51.23
2022-10-04T04:56:03.395Z,51.18
2022-10-04T04:58:35.448Z,51.39
2022-10-04T05:01:04.770Z,51.15
2022-10-04T05:03:33.916Z,51.42
2022-10-04T05:06:03.012Z,51.24
2022-10-04T05:08:38.563Z,51.02
2022-10-04T05:11:08.280Z,51.06
2022-10-04T05:13:49.170Z,50.89
2022-10-04T05:16:20.003Z,50.66
2022-10-04T05:18:47.453Z,50.38
2022-10-04T05:21:25.519Z,50.92
2022-10-04T05:23:52.588Z,50.89
2022-10-04T05:26:27.580Z,51.29
2022-10-04T05:28:55.564Z,51.78
2022-10-04T05:31:31.329Z,51.65
2022-10-04T05:33:58.831Z,51.44
2022-10-04T05:36:41.480Z,51.68
2022-10-04T05:39:20.155Z,52.00
2022-10-04T05:42:27.044Z,52.15
2022-10-04T05:44:57.586Z,52.26
2022-10-04T05:47:29.165Z,52.53
2022-10-04T05:49:58.298Z,52.81
2022-10-04T05:52:28.232Z,52.31
2022-10-04T05:55:16.246Z,52.63
2022-10-04T05:58:08.443Z,52.25
2022-10-04T06:00:46.077Z,52.34
2022-10-04T06:03:28.053Z,52.27
2022-10-04T06:06:29.639Z,52.43
2022-10-04T06:09:00.755Z,52.80
2022-10-04T06:11:32.241Z,52.99
2022-10-04T06:14:23.720Z,53.13
2022-10-04T06:17:18.868Z,53.13
2022-10-04T06:20:04.255Z,53.02
2022-10-04T06:22:32.789Z,53.16
2022-10-04T06:25:06.560Z,53.25
2022-10-04T06:27:44.214Z,53.67
2022-10-04T06:30:16.135Z,53.56
2022-10-04T06:33:14.122Z,53.61
2022-10-04T06:35:54.711Z,53.43
2022-10-04T06:38:36.911Z,53.87
2022-10-04T06:41:06.678Z,53.64
2022-10-04T06:43:39.037Z,53.61
2022-10-04T06:46:28.772Z,53.55
2022-10-04T06:49:07.988Z,53.39
2022-10-04T06:52:02.036Z,53.64
2022-10-04T06:54:32.468Z,53.57
2022-10-04T06:57:31.737Z,53.71
2022-10-04T07:00:08.853Z,53.47
2022-10-04T07:02:59.819Z,53.61
2022-10-04T07:05:54.543Z,53.32
2022-10-04T07:08:41.553Z,53.50
2022-10-04T07:11:12.427Z,53.21
2022-10-04T07:14:17.891Z,53.54
2022-10-04T07:16:51.008Z,53.50
2022-10-04T07:19:20.614Z,53.49
2022-10-04T07:22:06.987Z,53.52
2022-10-04T07:24:57.802Z,53.14
2022-10-04T07:27:27.551Z,53.28
2022-10-04T07:29:55.571Z,53.48
2022-10-04T07:32:34.183Z,53.31
2022-10-04T07:35:10.078Z,53.63
2022-10-04T07:37:46.382Z,53.24
2022-10-04T07:40:24.320Z,53.66
2022-10-04T07:42:59.952Z,53.10
2022-10-04T07:45:32.748Z,53.25
2022-10-04T07:48:13.098Z,52.79
2022-10-04T07:50:44.437Z,53.29
2022-10-04T07:53:17.096Z,53.23
2022-10-04T07:55:55.890Z,53.72
2022-10-04T07:58:52.492Z,53.36
2022-10-04T08:01:31.183Z,53.23
2022-10-04T08:04:03.621Z,53.52
2022-10-04T08:06:36.744Z,53.15
2022-10-04T08:09:17.093Z,53.28
2022-10-04T08:11:54.204Z,53.72
2022-10-04T08:14:43.887Z,53.74
2022-10-04T08:17:25.671Z,54.08
2022-10-04T08:20:29.287Z,53.91
2022-10-04T08:23:09.679Z,53.83
2022-10-04T08:25:53.548Z,53.67
2022-10-04T08:28:57.887Z,53.66
2022-10-04T08:31:31.854Z,53.08
2022-10-04T08:34:23.199Z,53.09
2022-10-04T08:37:08.339Z,53.52
2022-10-04T08:39:56.964Z,53.22
2022-10-04T08:42:33.582Z,53.29
2022-10-04T08:45:16.869Z,53.24
2022-10-04T08:48:19.433Z,53.68
2022-10-04T08:51:23.763Z,53.52
2022-10-04T08:54:11.569Z,53.38
2022-10-04T08:56:59.749Z,53.10
2022-10-04T08:59:48.231Z,53.10
2022-10-04T09:02:47.988Z,53.11
2022-10-04T09:05:32.448Z,53.49
2022-10-04T09:08:21.017Z,53.16
2022-10-04T09:10:59.408Z,53.45
2022-10-04T09:14:03.696Z,53.39
2022-10-04T09:16:42.746Z,53.85
2022-10-04T09:19:24.863Z,53.79
2022-10-04T09:21:54.404Z,54.18
2022-10-04T09:24:42.484Z,54.41
2022-10-04T09:27:55.418Z,54.39
2022-10-04T09:30:25.289Z,54.42
2022-10-04T09:33:07.846Z,54.33
2022-10-04T09:35:50.320Z,54.52
2022-10-04T09:39:06.098Z,54.91
2022-10-04T09:42:03.391Z,55.01
2022-10-04T09:44:34.374Z,54.56
2022-10-04T09:47:31.325Z,54.59
2022-10-04T09:50:26.690Z,54.96
2022-10-04T09:53:02.938Z,54.96
2022-10-04T09:55:42.456Z,55.09
2022-10-04T09:58:34.020Z,54.92
2022-10-04T10:01:23.217Z,55.22
2022-10-04T10:04:09.601Z,55.12
2022-10-04T10:06:52.127Z,54.76
2022-10-04T10:09:47.925Z,54.72
2022-10-04T10:13:02.004Z,54.66
2022-10-04T10:16:05.080Z,54.55
2022-10-04T10:19:16.715Z,54.29
2022-10-04T10:21:52.386Z,54.63
2022-10-04T10:24:27.387Z,54.74
2022-10-04T10:27:07.325Z,54.55
2022-10-04T10:30:03.593Z,54.77
2022-10-04T10:32:46.911Z,55.17
2022-10-04T10:35:29.498Z,55.08
2022-10-04T10:38:17.640Z,54.92
2022-10-04T10:41:10.422Z,55.06
2022-10-04T10:44:10.699Z,54.46
2022-10-04T10:46:58.980Z,54.28
2022-10-04T10:49:44.436Z,54.32
2022-10-04T10:52:26.185Z,54.15
2022-10-04T10:55:00.040Z,54.09
2022-10-04T10:57:35.492Z,54.35
2022-10-04T11:00:20.359Z,53.92
2022-10-04T11:03:25.371Z,54.12
2022-10-04T11:06:01.558Z,53.69
2022-10-04T11:08:30.913Z,53.25
2022-10-04T11:11:08.230Z,53.39
2022-10-04T11:13:34.955Z,53.09
2022-10-04T11:16:38.937Z,53.11
2022-10-04T11:19:17.687Z,53.09
2022-10-04T11:22:22.973Z,52.91
2022-10-04T11:25:09.107Z,52.57
2022-10-04T11:27:49.491Z,52.75
2022-10-04T11:30:25.127Z,52.42
2022-10-04T11:33:03.979Z,52.56
2022-10-04T11:35:37.183Z,52.42
2022-10-04T11:38:41.137Z,51.94
2022-10-04T11:41:29.013Z,51.43
2022-10-04T11:44:16.774Z,51.72
2022-10-04T11:46:53.911Z,51.60
2022-10-04T11:49:52.754Z,51.38
2022-10-04T11:52:51.278Z,51.46
2022-10-04T11:55:54.975Z,51.36
2022-10-04T11:58:42.863Z,51.23
2022-10-04T12:01:38.841Z,51.72
2022-10-04T12:04:29.256Z,51.75
2022-10-04T12:07:14.638Z,51.57
2022-10-04T12:09:45.131Z,51.00
2022-10-04T12:12:37.009Z,51.19
2022-10-04T12:15:19.052Z,51.26
2022-10-04T12:18:09.760Z,51.78
2022-10-04T12:21:14.236Z,51.61
2022-10-04T12:23:57.955Z,51.47
2022-10-04T12:26:47.657Z,51.07
2022-10-04T12:29:20.443Z,51.42
2022-10-04T12:32:14.872Z,51.04
2022-10-04T12:34:51.507Z,50.78
2022-10-04T12:37:39.841Z,50.95
2022-10-04T12:40:12.403Z,50.71
2022-10-04T12:42:39.681Z,50.54
2022-10-04T12:45:25.073Z,50.48
2022-10-04T12:47:57.743Z,49.86
2022-10-04T12:51:10.117Z,49.84
2022-10-04T12:53:41.979Z,49.96
2022-10-04T12:56:34.021Z,49.62
2022-10-04T12:59:16.483Z,50.04
2022-10-04T13:02:21.214Z,49.90
2022-10-04T13:04:53.469Z,49.69
2022-10-04T13:07:26.175Z,49.81
2022-10-04T13:10:24.223Z,49.58
2022-10-04T13:13:19.308Z,49.73
2022-10-04T13:19:09.717Z,49.44
2022-10-04T13:21:36.680Z,49.61
2022-10-04T13:24:25.985Z,49.52
2022-10-04T13:27:05.574Z,49.83
2022-10-04T13:29:50.356Z,50.07
2022-10-04T13:32:22.682Z,49.89
2022-10-04T13:34:57.487Z,49.74
2022-10-04T13:37:54.733Z,50.05
2022-10-04T13:40:37.383Z,50.18
2022-10-04T13:43:27.768Z,50.42
2022-10-04T13:46:32.237Z,50.71
2022-10-04T13:49:24.340Z,51.05
2022-10-04T13:52:27.724Z,50.46
2022-10-04T13:55:42.534Z,50.51
2022-10-04T13:58:47.636Z,50.47
2022-10-04T14:01:44.775Z,51.01
2022-10-04T14:04:53.040Z,50.73
2022-10-04T14:07:41.121Z,50.67
2022-10-04T14:10:23.556Z,50.48
2022-10-04T14:13:24.765Z,50.74
2022-10-04T14:16:05.631Z,50.71
2022-10-04T14:19:08.391Z,50.86
2022-10-04T14:21:44.298Z,51.07
2022-10-04T14:35:58.318Z,50.79
2022-10-04T14:38:32.235Z,50.75
2022-10-04T14:41:05.052Z,51.56
2022-10-04T14:43:53.514Z,51.79
2022-10-04T14:46:35.315Z,52.09
2022-10-04T14:49:11.555Z,51.99
2022-10-04T14:52:16.738Z,52.24
2022-10-04T14:55:04.036Z,52.53
2022-10-04T14:58:02.979Z,52.45
2022-10-04T15:01:05.209Z,52.85
2022-10-04T15:03:55.312Z,52.90
2022-10-04T15:06:31.007Z,53.33
2022-10-04T15:09:30.176Z,53.50
2022-10-04T15:12:36.476Z,54.19
2022-10-04T15:15:14.459Z,54.17
2022-10-04T15:17:54.571Z,54.74
2022-10-04T15:20:22.312Z,54.92
2022-10-04T15:23:15.128Z,54.43
2022-10-04T15:25:49.364Z,54.42
2022-10-04T15:28:37.425Z,54.99
2022-10-04T15:31:20.682Z,54.96
2022-10-04T15:34:24.708Z,55.31
2022-10-04T15:37:01.829Z,55.25
2022-10-04T15:39:45.834Z,55.55
2022-10-04T15:42:29.360Z,55.58
2022-10-04T15:44:58.844Z,55.54
2022-10-04T15:47:36.260Z,56.13
2022-10-04T15:50:26.816Z,56.18
2022-10-04T15:53:04.330Z,56.02
2022-10-04T15:55:49.578Z,56.06
2022-10-04T15:58:38.184Z,55.96
2022-10-04T16:01:38.192Z,56.11
2022-10-04T16:04:22.915Z,56.37
2022-10-04T16:06:56.260Z,56.56
2022-10-04T16:09:45.290Z,56.54
2022-10-04T16:12:47.347Z,56.56
2022-10-04T16:15:35.933Z,56.94
2022-10-04T16:18:30.862Z,56.70
2022-10-04T16:21:06.545Z,57.08
2022-10-04T16:23:35.729Z,56.81
2022-10-04T16:26:17.323Z,57.19
2022-10-04T16:29:26.839Z,57.40
2022-10-04T16:32:27.292Z,57.29
2022-10-04T16:34:59.900Z,57.16
2022-10-04T16:37:39.718Z,57.53
2022-10-04T16:40:06.415Z,57.31
2022-10-04T16:42:45.579Z,57.38
2022-10-04T16:45:31.255Z,57.20
2022-10-04T16:48:02.150Z,57.39
2022-10-04T16:50:56.713Z,57.60
2022-10-04T16:53:38.372Z,57.93
2022-10-04T16:56:19.064Z,57.78
2022-10-04T16:59:00.018Z,58.11
2022-10-04T17:01:48.116Z,58.36
2022-10-04T17:04:17.502Z,57.95
2022-10-04T17:07:01.958Z,58.13
2022-10-04T17:09:47.948Z,58.62
2022-10-04T17:12:18.763Z,58.46
2022-10-04T17:15:27.855Z,58.71
2022-10-04T17:18:12.848Z,59.10
2022-10-04T17:20:42.714Z,58.83
2022-10-04T17:23:30.681Z,59.20
2022-10-04T17:26:16.031Z,59.07
2022-10-04T17:28:57.688Z,59.35
2022-10-04T17:31:48.448Z,59.55
2022-10-04T17:34:24.576Z,59.36
2022-10-04T17:36:58.610Z,59.67
2022-10-04T17:39:44.581Z,59.77
2022-10-04T17:42:24.230Z,59.70
2022-10-04T17:44:57.105Z,59.65
2022-10-04T17:48:06.403Z,60.05
2022-10-04T17:51:25.921Z,59.98
2022-10-04T17:54:22.913Z,59.97
2022-10-04T17:56:53.032Z,59.82
2022-10-04T17:59:29.999Z,59.76
2022-10-04T18:02:04.340Z,59.97
2022-10-04T18:04:34.889Z,60.33
2022-10-04T18:07:02.234Z,59.87
2022-10-04T18:09:56.524Z,60.35
2022-10-04T18:12:33.208Z,60.18
2022-10-04T18:15:08.915Z,59.67
2022-10-04T18:17:50.214Z,59.68
2022-10-04T18:20:28.291Z,59.72
2022-10-04T18:23:04.083Z,59.52
2022-10-04T18:25:32.207Z,59.79
2022-10-04T18:28:08.084Z,59.63
2022-10-04T18:30:51.423Z,59.46
2022-10-04T18:33:26.163Z,59.58
2022-10-04T18:35:53.318Z,59.21
2022-10-04T18:38:24.446Z,59.34
2022-10-04T18:41:17.880Z,59.30
2022-10-04T18:43:59.783Z,59.54
2022-10-04T18:46:38.196Z,59.53
2022-10-04T18:49:17.933Z,58.96
2022-10-04T18:52:11.019Z,59.17
2022-10-04T18:54:57.416Z,58.89
2022-10-04T18:57:33.409Z,59.23
2022-10-04T19:00:31.366Z,58.71
2022-10-04T19:02:58.930Z,58.91
2022-10-04T19:05:51.454Z,58.62
2022-10-04T19:08:39.749Z,58.82
2022-10-04T19:11:13.113Z,58.45
2022-10-04T19:13:54.677Z,58.72
2022-10-04T19:16:21.454Z,58.18
2022-10-04T19:18:54.412Z,58.44
2022-10-04T19:21:42.789Z,58.42
2022-10-04T19:24:31.213Z,58.12
2022-10-04T19:27:03.390Z,58.36
2022-10-04T19:30:00.884Z,58.42
2022-10-04T19:32:36.410Z,57.95
2022-10-04T19:35:09.097Z,57.76
2022-10-04T19:37:49.840Z,57.83
2022-10-04T19:40:47.763Z,57.89
2022-10-04T19:43:24.672Z,57.80
2022-10-04T19:46:14.564Z,57.60
2022-10-04T19:48:49.912Z,57.76
2022-10-04T19:51:49.580Z,57.45
2022-10-04T19:54:27.065Z,57.29
2022-10-04T19:56:55.550Z,57.16
2022-10-04T19:59:33.163Z,56.96
2022-10-04T20:02:00.183Z,57.02
2022-10-04T20:04:37.928Z,57.43
2022-10-04T20:07:11.582Z,57.33
2022-10-04T20:09:44.580Z,57.08
2022-10-04T20:12:35.443Z,56.94
2022-10-04T20:15:17.539Z,56.79
2022-10-04T20:17:47.889Z,56.74
2022-10-04T20:20:44.412Z,56.91
2022-10-04T20:23:12.781Z,56.77
2022-10-04T20:25:45.810Z,56.80
2022-10-04T20:28:27.723Z,56.58
2022-10-04T20:30:58.368Z,56.59
2022-10-04T20:33:31.587Z,56.54
2022-10-04T20:36:07.045Z,56.35
2022-10-04T20:38:48.815Z,56.54
2022-10-04T20:41:49.663Z,56.50
2022-10-04T20:44:41.603Z,56.48
2022-10-04T20:47:40.510Z,56.05
2022-10-04T20:50:09.977Z,56.26
2022-10-04T20:52:36.986Z,55.98
2022-10-04T20:55:14.438Z,56.22
2022-10-04T20:57:41.150Z,55.69
2022-10-04T21:00:18.211Z,55.81
2022-10-04T21:02:45.019Z,55.67
2022-10-04T21:05:22.720Z,55.66
2022-10-04T21:07:49.419Z,55.61
2022-10-04T21:10:19.311Z,56.03
2022-10-04T21:12:46.317Z,55.83
2022-10-04T21:15:15.986Z,55.42
2022-10-04T21:18:03.851Z,55.89
2022-10-04T21:20:51.255Z,55.64
2022-10-04T21:23:30.604Z,55.54
2022-10-04T21:26:22.745Z,55.56
2022-10-04T21:28:58.773Z,55.76
2022-10-04T21:31:25.552Z,55.77
2022-10-04T21:33:52.295Z,55.47
2022-10-04T21:36:18.988Z,55.75
2022-10-04T21:38:45.598Z,55.47
2022-10-04T21:41:13.887Z,55.76
2022-10-04T21:43:40.523Z,55.51
2022-10-04T21:46:07.384Z,55.47
2022-10-04T21:48:34.063Z,55.81
2022-10-04T21:51:00.944Z,55.48
2022-10-04T21:53:27.685Z,55.77
2022-10-04T21:55:54.487Z,55.62
2022-10-04T21:58:21.275Z,55.88
2022-10-04T22:00:48.063Z,55.32
2022-10-04T22:03:14.734Z,55.23
2022-10-04T22:05:41.459Z,55.29
2022-10-04T22:08:08.126Z,55.21
2022-10-04T22:10:35.367Z,55.14
2022-10-04T22:13:02.086Z,55.26
2022-10-04T22:15:29.031Z,55.19
2022-10-04T22:17:55.787Z,55.49
2022-10-04T22:20:23.384Z,55.36
2022-10-04T22:22:50.106Z,54.93
2022-10-04T22:25:19.431Z,54.96
2022-10-04T22:27:46.667Z,55.23
2022-10-04T22:30:22.830Z,55.21
2022-10-04T22:32:49.884Z,55.09
2022-10-04T22:35:18.893Z,54.72
2022-10-04T22:37:46.270Z,54.67
2022-10-04T22:40:19.595Z,54.98
2022-10-04T22:42:50.104Z,55.05
2022-10-04T22:45:22.792Z,54.88
2022-10-04T22:47:50.550Z,54.58
2022-10-04T22:50:36.891Z,54.97
2022-10-04T22:53:16.518Z,54.93
2022-10-04T22:55:43.264Z,54.68
2022-10-04T22:58:13.402Z,54.41
2022-10-04T23:00:40.843Z,54.56
2022-10-04T23:03:22.934Z,54.73
2022-10-04T23:05:49.744Z,54.54
2022-10-04T23:08:17.921Z,54.38
2022-10-04T23:10:45.569Z,54.30
2022-10-04T23:13:12.452Z,54.39
2022-10-04T23:15:39.664Z,54.14
2022-10-04T23:18:17.194Z,54.55
2022-10-04T23:20:46.309Z,54.42
2022-10-04T23:23:21.264Z,54.27
2022-10-04T23:25:48.899Z,54.31
2022-10-04T23:28:17.962Z,54.14
2022-10-04T23:31:01.086Z,54.42
2022-10-04T23:33:28.122Z,54.62
2022-10-04T23:35:55.275Z,54.48
2022-10-04T23:38:24.456Z,54.66
2022-10-04T23:40:51.729Z,54.48
2022-10-04T23:43:24.543Z,54.68
2022-10-04T23:45:56.449Z,54.73
2022-10-04T23:48:26.295Z,54.32
2022-10-04T23:50:54.544Z,54.69
2022-10-04T23:53:28.987Z,55.00
2022-10-04T23:55:56.213Z,54.78
2022-10-04T23:58:24.427Z,54.83
